Terminal Aerodrome Forecast
Issued by NWS Cleveland, OH

Home | Current Version | Previous Version | Graphics & Text | Print | Product List | Glossary On
Versions: 1 2 3 4 5 6 7 8 9 10 11 12 13 14 15 16
000
FTUS41 KCLE 261038 AAA
TAFERI
TAF AMD
KERI 261038Z 2611/2706 27005KT 5SM BR SCT006 BKN070
      TEMPO 2611/2612 BKN006
     FM261200 31006KT P6SM SCT010 BKN020
     FM261600 33010KT P6SM SCT030 BKN250
     FM270100 VRB03KT P6SM SKC=

USA.gov is the U.S. government's official web portal to all federal, state and local government web resources and services.